Time;durP1;ratioP1;P1;durP2;ratioP2;P2;SDS_P1;SDS_P2;PMS_P1;PMS_P2;Temp;Humidity;BMP_temperature;BMP_pressure;BME280_temperature;BME280_humidity;BME280_pressure;Samples;Min_cycle;Max_cycle;Signal;HPM_P1;HPM_P2
2020/12/12 00:00:00;;;;;;;15.85;11.13;;;5.30;92.80;;;;;;5109234;28;20020;-79
2020/12/12 00:02:30;;;;;;;16.92;11.55;;;5.30;92.80;;;;;;5098659;28;20383;-80
2020/12/12 00:04:56;;;;;;;15.40;11.48;;;5.30;92.80;;;;;;5093012;28;20043;-80
2020/12/12 00:07:22;;;;;;;18.13;11.50;;;5.40;92.80;;;;;;5075322;28;20510;-80
2020/12/12 00:09:49;;;;;;;17.33;11.57;;;5.40;92.80;;;;;;5075583;28;20118;-79
2020/12/12 00:12:15;;;;;;;15.13;11.38;;;5.40;92.80;;;;;;5092115;28;20216;-79
2020/12/12 00:14:41;;;;;;;15.40;11.68;;;5.40;92.80;;;;;;5073265;28;20137;-79
2020/12/12 00:17:06;;;;;;;17.48;12.15;;;5.40;92.80;;;;;;5088799;28;20028;-80
2020/12/12 00:19:32;;;;;;;19.58;12.30;;;5.40;92.80;;;;;;5072064;28;20031;-79
2020/12/12 00:21:58;;;;;;;19.92;12.52;;;5.40;92.80;;;;;;5055452;28;20511;-79
2020/12/12 00:24:23;;;;;;;22.13;12.27;;;5.40;92.80;;;;;;5084153;28;20062;-79
2020/12/12 00:26:49;;;;;;;18.02;12.13;;;5.40;92.80;;;;;;5058719;28;20032;-80
2020/12/12 00:29:15;;;;;;;15.60;10.93;;;5.40;92.80;;;;;;5069232;28;20037;-76
2020/12/12 00:31:42;;;;;;;19.30;11.13;;;5.40;92.80;;;;;;5080692;28;20106;-76
2020/12/12 00:34:08;;;;;;;14.35;10.55;;;5.40;92.80;;;;;;5074998;28;20038;-75
2020/12/12 00:36:43;;;;;;;15.57;10.48;;;5.40;92.80;;;;;;5093063;28;20028;-75
2020/12/12 00:39:09;;;;;;;16.67;10.88;;;5.50;93.10;;;;;;5093270;28;20028;-76
2020/12/12 00:41:36;;;;;;;13.80;9.80;;;5.50;92.80;;;;;;5074515;28;20111;-76
2020/12/12 00:44:03;;;;;;;14.27;10.15;;;5.40;92.80;;;;;;5074939;28;20051;-75
2020/12/12 00:46:29;;;;;;;13.35;9.95;;;5.50;92.80;;;;;;5068567;28;20383;-76
2020/12/12 00:48:55;;;;;;;15.35;10.65;;;5.50;92.80;;;;;;5092931;28;20023;-76
2020/12/12 00:51:20;;;;;;;14.55;10.00;;;5.50;92.80;;;;;;5095252;28;20040;-75
2020/12/12 00:53:46;;;;;;;13.38;10.25;;;5.50;93.10;;;;;;5092815;28;20023;-75
2020/12/12 00:56:14;;;;;;;14.40;9.90;;;5.50;93.10;;;;;;5058032;28;20020;-76
2020/12/12 00:58:40;;;;;;;15.70;10.93;;;5.50;92.80;;;;;;5074687;28;20024;-76
2020/12/12 01:01:05;;;;;;;13.63;10.13;;;5.50;93.10;;;;;;5075399;28;20077;-87
2020/12/12 01:03:31;;;;;;;15.10;9.48;;;5.50;92.80;;;;;;5058591;28;20066;-87
2020/12/12 01:05:56;;;;;;;17.90;10.15;;;5.50;92.80;;;;;;5093908;28;20492;-86
2020/12/12 01:08:22;;;;;;;16.85;10.35;;;5.50;92.80;;;;;;5076004;28;20036;-87
2020/12/12 01:10:47;;;;;;;13.38;9.07;;;5.60;92.80;;;;;;5075928;28;20024;-87
2020/12/12 01:13:13;;;;;;;12.40;9.50;;;5.50;92.80;;;;;;5094180;28;20036;-86
2020/12/12 01:15:39;;;;;;;15.27;9.45;;;5.60;92.80;;;;;;5060371;28;20024;-86
2020/12/12 01:18:04;;;;;;;13.68;8.75;;;5.60;92.80;;;;;;5079546;28;20028;-86
2020/12/12 01:20:30;;;;;;;13.20;9.63;;;5.60;92.80;;;;;;5062909;28;20107;-86
2020/12/12 01:22:56;;;;;;;14.80;9.05;;;5.60;92.80;;;;;;5079484;28;20052;-86
2020/12/12 01:25:22;;;;;;;12.30;8.93;;;5.60;92.80;;;;;;5079687;28;20023;-86
2020/12/12 01:27:47;;;;;;;13.98;9.00;;;5.60;92.80;;;;;;5097358;28;20020;-87
2020/12/12 01:30:13;;;;;;;13.50;9.35;;;5.60;92.80;;;;;;5097188;28;20024;-86
2020/12/12 01:32:38;;;;;;;18.13;8.52;;;5.70;92.80;;;;;;5062694;28;20032;-86
2020/12/12 01:35:04;;;;;;;16.77;9.82;;;5.70;92.80;;;;;;5079354;28;20028;-87
2020/12/12 01:37:30;;;;;;;12.23;9.00;;;5.60;93.10;;;;;;5078992;28;20034;-86
2020/12/12 01:39:56;;;;;;;12.18;8.52;;;5.60;92.80;;;;;;5079324;28;20028;-86
2020/12/12 01:42:21;;;;;;;13.13;9.50;;;5.70;92.80;;;;;;5079034;28;20028;-87
2020/12/12 01:44:47;;;;;;;13.38;8.90;;;5.70;92.80;;;;;;5096802;28;20051;-86
2020/12/12 01:47:12;;;;;;;13.70;9.57;;;5.60;92.80;;;;;;5079030;28;20459;-87
2020/12/12 01:49:39;;;;;;;11.73;9.30;;;5.70;93.10;;;;;;5062273;28;20036;-86
2020/12/12 01:52:06;;;;;;;15.25;8.65;;;5.70;92.80;;;;;;5096961;28;20485;-87
2020/12/12 01:54:33;;;;;;;12.73;9.23;;;5.70;92.80;;;;;;5079078;28;20455;-87
2020/12/12 01:57:03;;;;;;;11.15;8.60;;;5.70;92.80;;;;;;5096809;28;20024;-86
2020/12/12 01:59:30;;;;;;;14.73;9.50;;;5.70;92.80;;;;;;5096605;28;20020;-86
2020/12/12 02:01:58;;;;;;;14.73;8.88;;;5.70;92.80;;;;;;5077271;28;20127;-86
2020/12/12 02:04:25;;;;;;;14.57;9.80;;;5.70;92.80;;;;;;5076594;28;20540;-87
2020/12/12 02:06:51;;;;;;;15.98;8.95;;;5.70;92.80;;;;;;5079028;28;20111;-87
2020/12/12 02:09:17;;;;;;;12.90;9.27;;;5.70;92.90;;;;;;5078649;28;20477;-86
2020/12/12 02:11:44;;;;;;;13.82;9.13;;;5.70;92.90;;;;;;5061817;28;20119;-86
2020/12/12 02:14:11;;;;;;;16.65;8.82;;;5.70;92.90;;;;;;5078843;28;20034;-87
2020/12/12 02:17:06;;;;;;;12.85;8.82;;;5.70;92.90;;;;;;5096306;28;20015;-86
2020/12/12 02:19:33;;;;;;;11.93;8.10;;;5.70;92.90;;;;;;5065983;28;20036;-85
2020/12/12 02:21:59;;;;;;;13.13;8.82;;;5.70;92.90;;;;;;5096125;28;20031;-87
2020/12/12 02:24:29;;;;;;;13.40;8.60;;;5.70;92.90;;;;;;5078465;28;20028;-86
2020/12/12 02:26:58;;;;;;;13.32;9.23;;;5.70;92.90;;;;;;5062517;28;20077;-87
2020/12/12 02:29:39;;;;;;;13.27;8.73;;;5.70;92.90;;;;;;5078418;28;20021;-86
2020/12/12 02:32:07;;;;;;;15.73;8.98;;;5.80;92.90;;;;;;5078067;28;20042;-87
2020/12/12 02:34:32;;;;;;;12.57;9.07;;;5.70;92.90;;;;;;5078304;28;20077;-87
2020/12/12 02:36:58;;;;;;;13.52;8.98;;;5.80;92.90;;;;;;5094954;28;20040;-86
2020/12/12 02:39:24;;;;;;;12.00;8.40;;;5.80;92.90;;;;;;5077330;28;20051;-86
2020/12/12 02:41:49;;;;;;;12.15;8.75;;;5.80;92.90;;;;;;5095466;28;20388;-84
2020/12/12 02:44:15;;;;;;;10.48;7.80;;;5.80;92.90;;;;;;5076882;28;20040;-86
2020/12/12 02:46:41;;;;;;;12.15;8.75;;;5.80;92.90;;;;;;5095022;28;20028;-86
2020/12/12 02:49:07;;;;;;;15.18;8.50;;;5.80;92.90;;;;;;5094735;28;20020;-87
2020/12/12 02:51:32;;;;;;;10.70;7.55;;;5.80;92.90;;;;;;5081089;28;20024;-86
2020/12/12 02:53:58;;;;;;;15.02;8.18;;;5.80;93.20;;;;;;5098352;28;20044;-86
2020/12/12 02:56:23;;;;;;;11.45;8.50;;;5.90;92.90;;;;;;5079684;28;20034;-87
2020/12/12 02:58:49;;;;;;;12.55;8.02;;;5.90;92.90;;;;;;5057296;28;20392;-87
2020/12/12 03:01:15;;;;;;;16.17;8.57;;;5.90;92.90;;;;;;5089701;28;20028;-86
2020/12/12 03:03:40;;;;;;;11.18;7.53;;;5.90;92.90;;;;;;5060431;28;20058;-86
2020/12/12 03:06:06;;;;;;;12.15;7.45;;;5.90;92.90;;;;;;5095522;28;20016;-86
2020/12/12 03:08:32;;;;;;;12.00;7.65;;;5.90;92.90;;;;;;5077591;28;20032;-86
2020/12/12 03:10:57;;;;;;;10.88;8.25;;;5.90;92.90;;;;;;5077507;28;20042;-87
2020/12/12 03:13:23;;;;;;;12.43;8.23;;;5.90;92.80;;;;;;5060927;28;20089;-86
2020/12/12 03:15:48;;;;;;;10.10;7.30;;;5.90;92.90;;;;;;5060744;28;20039;-87
2020/12/12 03:18:15;;;;;;;11.27;7.22;;;6.00;92.90;;;;;;5077404;28;20035;-87
2020/12/12 03:20:40;;;;;;;10.02;7.00;;;5.90;92.90;;;;;;5077562;28;20028;-86
2020/12/12 03:23:06;;;;;;;12.77;8.30;;;5.90;92.80;;;;;;5077552;28;20115;-87
2020/12/12 03:25:31;;;;;;;9.52;7.22;;;5.90;93.10;;;;;;5077127;28;20024;-87
2020/12/12 03:27:57;;;;;;;10.40;7.97;;;5.90;92.80;;;;;;5060498;28;20028;-87
2020/12/12 03:30:23;;;;;;;12.70;7.40;;;6.00;92.80;;;;;;5077314;28;20056;-87
2020/12/12 03:32:48;;;;;;;10.70;7.28;;;5.90;92.80;;;;;;5060420;28;20036;-87
2020/12/12 03:35:14;;;;;;;11.90;7.35;;;5.90;92.80;;;;;;5077343;28;20028;-86
2020/12/12 03:37:40;;;;;;;8.93;6.93;;;5.90;92.80;;;;;;5094729;28;20024;-87
2020/12/12 03:40:06;;;;;;;9.35;6.72;;;6.00;93.10;;;;;;5094593;28;20024;-87
2020/12/12 03:42:32;;;;;;;10.88;7.50;;;6.00;92.80;;;;;;5095030;28;20103;-87
2020/12/12 03:44:57;;;;;;;11.50;7.72;;;6.00;92.80;;;;;;5068419;28;20056;-86
2020/12/12 03:47:23;;;;;;;10.18;7.20;;;6.00;92.80;;;;;;5090462;28;20039;-86
2020/12/12 03:49:48;;;;;;;9.20;7.03;;;6.00;92.80;;;;;;5070861;28;20530;-87
2020/12/12 03:52:15;;;;;;;11.63;7.18;;;6.00;92.80;;;;;;5060165;28;20426;-87
2020/12/12 03:54:41;;;;;;;9.00;6.68;;;6.00;92.80;;;;;;5094696;28;20028;-86
2020/12/12 03:57:07;;;;;;;11.07;8.02;;;6.00;92.80;;;;;;5059877;28;20034;-87
2020/12/12 03:59:33;;;;;;;9.70;7.32;;;6.00;92.80;;;;;;5076911;28;20027;-86
2020/12/12 04:01:59;;;;;;;8.85;7.10;;;6.00;92.80;;;;;;5077390;28;20024;-87
2020/12/12 04:04:25;;;;;;;8.95;6.60;;;6.00;92.80;;;;;;5057230;28;20024;-86
2020/12/12 04:06:51;;;;;;;11.10;7.38;;;6.00;92.80;;;;;;5076781;28;20024;-87
2020/12/12 04:09:16;;;;;;;7.47;6.38;;;6.00;92.90;;;;;;5077040;28;20020;-86
2020/12/12 04:11:42;;;;;;;7.97;6.75;;;6.00;92.90;;;;;;5059773;28;20028;-86
2020/12/12 04:14:08;;;;;;;11.52;6.57;;;6.10;92.90;;;;;;5055835;28;20507;-86
2020/12/12 04:16:33;;;;;;;11.98;6.68;;;6.10;92.90;;;;;;5073883;28;20107;-87
2020/12/12 04:18:59;;;;;;;10.02;7.07;;;6.10;92.90;;;;;;5087442;28;20426;-87
2020/12/12 04:21:25;;;;;;;10.20;6.78;;;6.10;92.90;;;;;;5056100;28;20027;-86
2020/12/12 04:23:51;;;;;;;10.35;6.57;;;6.10;92.90;;;;;;5089718;28;20060;-87
2020/12/12 04:26:16;;;;;;;8.10;6.40;;;6.10;92.90;;;;;;5073866;28;20025;-87
2020/12/12 04:28:42;;;;;;;9.90;6.90;;;6.10;92.90;;;;;;5106200;28;20487;-87
2020/12/12 04:31:08;;;;;;;8.55;6.90;;;6.10;92.90;;;;;;5059528;28;20036;-87
2020/12/12 04:33:34;;;;;;;11.07;8.27;;;6.10;93.00;;;;;;5076090;28;20028;-87
2020/12/12 04:36:00;;;;;;;9.68;7.03;;;6.10;93.00;;;;;;5059286;28;20036;-87
2020/12/12 04:38:28;;;;;;;11.50;6.93;;;6.10;93.00;;;;;;5092866;28;20054;-86
2020/12/12 04:40:56;;;;;;;9.35;6.90;;;6.10;93.00;;;;;;5056291;28;20024;-87
2020/12/12 04:43:22;;;;;;;9.88;7.13;;;6.10;93.00;;;;;;5073649;28;21392;-87
2020/12/12 04:45:49;;;;;;;9.70;7.43;;;6.10;93.00;;;;;;5083971;28;20107;-87
2020/12/12 04:48:14;;;;;;;9.88;7.20;;;6.10;93.00;;;;;;5075917;28;20468;-87
2020/12/12 04:50:40;;;;;;;11.50;7.80;;;6.10;93.30;;;;;;5078490;28;20039;-86
2020/12/12 04:53:16;;;;;;;10.65;7.65;;;6.10;93.00;;;;;;5098043;28;20024;-87
2020/12/12 04:55:46;;;;;;;10.45;7.28;;;6.10;93.00;;;;;;5098539;28;20043;-86
2020/12/12 04:58:16;;;;;;;10.30;7.38;;;6.10;93.30;;;;;;5098484;28;20107;-86
2020/12/12 05:00:44;;;;;;;13.35;8.43;;;6.10;93.00;;;;;;5063655;28;20031;-86
2020/12/12 05:03:14;;;;;;;9.35;7.53;;;6.10;93.00;;;;;;5098000;28;20030;-86
2020/12/12 05:05:41;;;;;;;13.10;7.70;;;6.10;93.00;;;;;;5097800;28;20081;-85
2020/12/12 05:08:08;;;;;;;11.05;7.85;;;6.10;93.10;;;;;;5080526;28;20392;-86
2020/12/12 05:10:46;;;;;;;11.27;7.90;;;6.10;93.10;;;;;;5081024;28;20466;-87
2020/12/12 05:13:25;;;;;;;11.18;8.18;;;6.20;93.10;;;;;;5061373;28;20033;-86
2020/12/12 05:15:53;;;;;;;11.95;7.68;;;6.10;93.10;;;;;;5094975;28;20055;-86
2020/12/12 05:18:19;;;;;;;13.65;8.23;;;6.10;93.10;;;;;;5101716;28;20031;-86
2020/12/12 05:20:45;;;;;;;10.93;8.68;;;6.20;93.10;;;;;;5083565;28;20109;-86
2020/12/12 05:23:24;;;;;;;13.30;8.55;;;6.10;93.10;;;;;;5083651;28;20017;-87
2020/12/12 05:25:51;;;;;;;12.88;8.65;;;6.20;93.10;;;;;;5066572;28;20032;-85
2020/12/12 05:28:20;;;;;;;14.05;8.93;;;6.20;93.10;;;;;;5091887;28;20054;-85
2020/12/12 05:30:48;;;;;;;15.45;9.43;;;6.20;93.10;;;;;;5084756;28;20484;-86
2020/12/12 05:33:25;;;;;;;12.63;8.35;;;6.20;93.10;;;;;;5103230;28;20047;-84
2020/12/12 05:35:51;;;;;;;13.18;8.80;;;6.20;93.10;;;;;;5084212;28;20050;-84
2020/12/12 05:38:17;;;;;;;13.82;9.50;;;6.20;93.10;;;;;;5100734;28;20030;-85
2020/12/12 05:40:48;;;;;;;11.38;8.25;;;6.20;93.10;;;;;;5089132;28;20095;-85
2020/12/12 05:43:13;;;;;;;14.43;8.75;;;6.20;93.20;;;;;;5092067;28;20105;-86
2020/12/12 05:45:40;;;;;;;15.93;8.93;;;6.20;93.20;;;;;;5097348;28;20020;-86
2020/12/12 05:48:07;;;;;;;12.13;8.73;;;6.20;93.10;;;;;;5079820;28;20039;-86
2020/12/12 05:50:33;;;;;;;12.68;8.52;;;6.20;93.10;;;;;;5077448;28;20058;-87
2020/12/12 05:52:59;;;;;;;14.52;9.27;;;6.20;93.10;;;;;;5099791;28;20028;-87
2020/12/12 05:55:29;;;;;;;13.13;8.38;;;6.30;93.20;;;;;;5065769;28;20514;-86
2020/12/12 05:57:55;;;;;;;11.35;8.18;;;6.30;93.20;;;;;;5083009;28;20032;-86
2020/12/12 06:00:23;;;;;;;13.65;9.27;;;6.30;93.20;;;;;;5083000;28;20020;-86
2020/12/12 06:03:03;;;;;;;13.05;9.82;;;6.30;93.20;;;;;;5101059;28;20024;-86
2020/12/12 06:05:30;;;;;;;14.98;9.80;;;6.30;93.20;;;;;;5083132;28;20425;-86
2020/12/12 06:07:58;;;;;;;15.93;9.40;;;6.30;93.20;;;;;;5063740;28;20059;-86
2020/12/12 06:10:26;;;;;;;18.10;9.55;;;6.30;93.20;;;;;;5097116;28;20023;-86
2020/12/12 06:12:57;;;;;;;15.20;10.13;;;6.30;93.20;;;;;;5079361;28;20051;-86
2020/12/12 06:15:39;;;;;;;13.60;9.30;;;6.30;93.20;;;;;;5097125;28;20030;-87
2020/12/12 06:18:27;;;;;;;16.38;9.40;;;6.30;93.20;;;;;;5096195;28;20032;-86
2020/12/12 06:20:53;;;;;;;14.23;9.32;;;6.30;93.20;;;;;;5078617;28;20102;-85
2020/12/12 06:23:19;;;;;;;11.73;9.15;;;6.30;93.20;;;;;;5078382;28;20024;-86
2020/12/12 06:25:46;;;;;;;14.68;9.82;;;6.30;93.20;;;;;;5077951;28;20029;-86
2020/12/12 06:28:20;;;;;;;11.80;9.23;;;6.30;93.20;;;;;;5095959;28;20073;-86
2020/12/12 06:30:46;;;;;;;14.90;9.55;;;6.30;93.20;;;;;;5077585;28;20024;-85
2020/12/12 06:33:11;;;;;;;13.85;9.57;;;6.30;93.20;;;;;;5077834;28;20024;-85
2020/12/12 06:35:39;;;;;;;12.40;9.30;;;6.30;93.20;;;;;;5077057;28;20704;-87
2020/12/12 06:38:31;;;;;;;14.23;9.30;;;6.40;93.30;;;;;;5077515;28;20043;-85
2020/12/12 06:40:58;;;;;;;14.68;9.35;;;6.40;93.30;;;;;;5092243;28;20044;-86
2020/12/12 06:43:27;;;;;;;13.77;9.27;;;6.40;93.20;;;;;;5060803;28;20064;-86
2020/12/12 06:45:53;;;;;;;16.77;9.75;;;6.40;93.20;;;;;;5085150;28;20021;-85
2020/12/12 06:48:28;;;;;;;18.95;10.13;;;6.40;93.20;;;;;;5095810;28;20111;-83
2020/12/12 06:50:56;;;;;;;14.05;10.48;;;6.30;93.20;;;;;;5077104;28;20027;-84
2020/12/12 06:53:24;;;;;;;15.45;10.63;;;6.40;93.20;;;;;;5078904;28;20024;-85
2020/12/12 06:56:16;;;;;;;14.88;10.30;;;6.40;93.20;;;;;;5058410;28;20081;-83
2020/12/12 06:58:46;;;;;;;14.43;10.15;;;6.40;93.30;;;;;;5073904;28;20025;-85
2020/12/12 07:01:29;;;;;;;14.75;10.65;;;6.40;93.20;;;;;;5065335;28;20061;-84
2020/12/12 07:03:58;;;;;;;13.75;9.65;;;6.40;93.20;;;;;;5111195;28;20024;-84
2020/12/12 07:06:28;;;;;;;20.60;10.77;;;6.40;93.20;;;;;;5077476;28;20031;-80
2020/12/12 07:09:03;;;;;;;16.30;10.73;;;6.40;93.20;;;;;;5076471;28;20024;-80
2020/12/12 07:11:31;;;;;;;16.25;10.82;;;6.40;93.20;;;;;;5110252;28;20064;-81
2020/12/12 07:13:58;;;;;;;16.83;11.13;;;6.40;93.20;;;;;;5094489;28;20028;-81
2020/12/12 07:16:24;;;;;;;18.02;11.35;;;6.40;93.20;;;;;;5076311;28;20040;-80
2020/12/12 07:18:50;;;;;;;18.35;11.10;;;6.40;93.20;;;;;;5091068;28;20025;-81
2020/12/12 07:21:18;;;;;;;17.08;11.02;;;6.40;93.30;;;;;;5074161;28;20143;-81
2020/12/12 07:23:44;;;;;;;15.60;11.13;;;6.30;93.30;;;;;;5073056;28;20553;-81
2020/12/12 07:26:10;;;;;;;15.90;11.23;;;6.40;93.30;;;;;;5073942;28;20392;-80
2020/12/12 07:28:36;;;;;;;17.63;10.98;;;6.40;93.30;;;;;;5074082;28;20028;-81
2020/12/12 07:31:04;;;;;;;16.83;11.57;;;6.30;93.60;;;;;;5056163;28;20477;-81
2020/12/12 07:33:29;;;;;;;17.98;10.82;;;6.40;93.30;;;;;;5089579;28;20029;-75
2020/12/12 07:35:56;;;;;;;16.10;11.43;;;6.30;93.30;;;;;;5055907;28;20052;-75
2020/12/12 07:38:22;;;;;;;18.27;11.30;;;6.30;93.30;;;;;;5091263;28;20103;-76
2020/12/12 07:40:48;;;;;;;19.02;12.48;;;6.30;93.30;;;;;;5093857;28;20032;-76
2020/12/12 07:43:14;;;;;;;16.00;10.68;;;6.30;93.60;;;;;;5076110;28;20524;-85
2020/12/12 07:48:24;;;;;;;16.50;11.63;;;6.40;93.60;;;;;;5095016;28;20567;-85
2020/12/12 07:50:50;;;;;;;18.42;11.77;;;6.40;93.30;;;;;;5094113;28;20052;-81
2020/12/12 07:53:19;;;;;;;18.95;11.98;;;6.40;93.30;;;;;;5055731;28;20024;-81
2020/12/12 07:55:57;;;;;;;22.58;13.27;;;6.40;93.30;;;;;;5072382;28;20028;-81
2020/12/12 07:58:26;;;;;;;21.93;13.20;;;6.40;93.30;;;;;;5072570;28;20374;-81
2020/12/12 08:01:04;;;;;;;15.00;9.38;;;6.40;93.30;;;;;;5089249;28;20526;-81
2020/12/12 08:03:29;;;;;;;19.52;12.48;;;6.50;93.40;;;;;;5073516;28;20476;-81
2020/12/12 08:06:06;;;;;;;19.83;12.60;;;6.50;93.30;;;;;;5073643;28;20020;-81
2020/12/12 08:08:32;;;;;;;16.80;11.82;;;6.50;93.40;;;;;;5073525;28;20442;-81
2020/12/12 08:11:02;;;;;;;21.13;12.70;;;6.50;93.30;;;;;;5064484;28;20035;-80
2020/12/12 08:13:29;;;;;;;21.13;12.07;;;6.50;93.40;;;;;;5093655;28;20067;-81
2020/12/12 08:16:23;;;;;;;16.60;11.40;;;6.50;93.30;;;;;;5093417;28;20062;-80
2020/12/12 08:18:48;;;;;;;17.77;12.02;;;6.50;93.40;;;;;;5093586;28;20036;-81
2020/12/12 08:21:16;;;;;;;19.75;12.02;;;6.50;93.30;;;;;;5092180;28;20553;-81
2020/12/12 08:23:43;;;;;;;16.05;11.40;;;6.60;93.50;;;;;;5055459;28;20017;-80
2020/12/12 08:26:13;;;;;;;19.27;12.98;;;6.60;93.40;;;;;;5094119;28;20054;-80
2020/12/12 08:28:39;;;;;;;19.80;12.93;;;6.60;93.40;;;;;;5093456;28;20056;-80
2020/12/12 08:31:10;;;;;;;18.40;12.05;;;6.60;93.30;;;;;;5075189;28;20115;-81
2020/12/12 08:33:35;;;;;;;20.77;11.55;;;6.60;93.40;;;;;;5075480;28;20380;-80
2020/12/12 08:36:23;;;;;;;19.45;12.88;;;6.60;93.30;;;;;;5067557;28;20090;-80
2020/12/12 08:38:54;;;;;;;21.10;12.43;;;6.60;93.40;;;;;;5071664;28;20403;-80
2020/12/12 08:41:21;;;;;;;22.58;12.00;;;6.70;93.40;;;;;;5074167;28;20029;-79
2020/12/12 08:43:47;;;;;;;18.80;12.48;;;6.70;93.40;;;;;;5074994;28;20374;-81
2020/12/12 08:46:15;;;;;;;20.52;11.98;;;6.70;93.30;;;;;;5075146;28;20038;-80
2020/12/12 08:48:42;;;;;;;18.20;12.00;;;6.70;93.30;;;;;;5093033;28;20055;-80
2020/12/12 08:51:08;;;;;;;22.65;11.68;;;6.80;93.30;;;;;;5074981;28;20028;-80
2020/12/12 08:53:38;;;;;;;15.38;11.07;;;6.80;93.30;;;;;;5070697;28;20032;-80
2020/12/12 08:56:05;;;;;;;17.67;11.15;;;6.80;93.30;;;;;;5071972;28;20127;-80
2020/12/12 08:58:57;;;;;;;16.58;10.73;;;6.90;93.30;;;;;;5092993;28;20071;-80
2020/12/12 09:01:39;;;;;;;18.92;11.02;;;6.90;93.30;;;;;;5074672;28;20031;-80
2020/12/12 09:04:09;;;;;;;17.33;11.60;;;7.00;93.30;;;;;;5092905;28;20016;-80
2020/12/12 09:06:41;;;;;;;14.93;10.07;;;7.00;93.20;;;;;;5074776;28;20047;-80
2020/12/12 09:09:16;;;;;;;17.33;11.07;;;7.00;93.20;;;;;;5074662;28;20103;-80
2020/12/12 09:11:44;;;;;;;17.38;10.98;;;7.10;93.20;;;;;;5093094;28;20032;-80
2020/12/12 09:14:11;;;;;;;17.87;11.77;;;7.10;93.20;;;;;;5108807;28;20032;-80
2020/12/12 09:16:38;;;;;;;19.65;11.32;;;7.10;93.20;;;;;;5092963;28;20055;-80
2020/12/12 09:19:05;;;;;;;23.67;12.38;;;7.20;93.20;;;;;;5074637;28;20542;-80
2020/12/12 09:21:33;;;;;;;24.83;12.88;;;7.20;93.10;;;;;;5074767;28;20024;-80
2020/12/12 09:23:58;;;;;;;20.27;12.10;;;7.20;93.10;;;;;;5092748;28;20100;-80
2020/12/12 09:26:24;;;;;;;18.98;11.85;;;7.20;93.10;;;;;;5109100;28;20048;-80
2020/12/12 09:28:50;;;;;;;22.90;12.88;;;7.20;93.10;;;;;;5092693;28;20020;-80
2020/12/12 09:31:18;;;;;;;20.10;12.63;;;7.30;93.10;;;;;;5074808;28;20032;-80
2020/12/12 09:33:43;;;;;;;22.35;11.95;;;7.30;93.20;;;;;;5075277;28;20031;-80
2020/12/12 09:36:09;;;;;;;20.75;12.70;;;7.30;93.20;;;;;;5093076;28;20028;-80
2020/12/12 09:38:35;;;;;;;22.85;12.07;;;7.30;93.20;;;;;;5078071;28;20028;-80
2020/12/12 09:41:01;;;;;;;18.33;11.85;;;7.30;93.20;;;;;;5078265;28;20425;-80
2020/12/12 09:43:26;;;;;;;22.70;12.07;;;7.40;93.20;;;;;;5096620;28;20110;-80
2020/12/12 09:45:52;;;;;;;20.70;11.38;;;7.40;93.20;;;;;;5078120;28;20135;-80
2020/12/12 09:48:18;;;;;;;18.08;11.43;;;7.40;93.10;;;;;;5096274;28;20024;-80
2020/12/12 09:50:44;;;;;;;21.92;11.57;;;7.40;93.10;;;;;;5078050;28;20506;-80
2020/12/12 09:53:10;;;;;;;17.65;10.88;;;7.50;93.10;;;;;;5095867;28;20028;-80
2020/12/12 09:55:38;;;;;;;19.75;12.25;;;7.50;93.10;;;;;;5070839;28;20078;-80
2020/12/12 09:58:05;;;;;;;21.08;12.68;;;7.50;93.10;;;;;;5074508;28;20064;-80
2020/12/12 10:00:40;;;;;;;17.58;11.27;;;7.60;93.10;;;;;;5111259;28;20502;-80
2020/12/12 10:03:06;;;;;;;21.13;11.07;;;7.60;93.10;;;;;;5079202;28;20031;-81
2020/12/12 10:05:33;;;;;;;19.88;11.48;;;7.60;93.10;;;;;;5091463;28;20423;-80
2020/12/12 10:07:59;;;;;;;20.10;12.52;;;7.70;93.10;;;;;;5075272;28;20507;-80
2020/12/12 10:10:26;;;;;;;21.48;11.77;;;7.70;93.10;;;;;;5090884;28;20049;-80
2020/12/12 10:12:52;;;;;;;25.67;13.73;;;7.70;93.00;;;;;;5074984;28;20037;-80
2020/12/12 10:15:20;;;;;;;17.92;12.93;;;7.70;93.10;;;;;;5075170;28;20055;-80
2020/12/12 10:17:46;;;;;;;20.55;12.45;;;7.80;93.10;;;;;;5057619;28;20510;-80
2020/12/12 10:20:12;;;;;;;25.95;12.50;;;7.80;93.00;;;;;;5057353;28;20124;-81
2020/12/12 10:22:39;;;;;;;19.75;12.65;;;7.90;93.00;;;;;;5057314;28;20115;-80
2020/12/12 10:25:06;;;;;;;21.10;12.32;;;7.90;93.00;;;;;;5075298;28;20016;-80
2020/12/12 10:27:33;;;;;;;17.65;9.98;;;7.90;93.00;;;;;;5057126;28;20036;-80
2020/12/12 10:29:59;;;;;;;22.17;11.75;;;7.90;93.00;;;;;;5075291;28;20021;-81
2020/12/12 10:32:24;;;;;;;23.80;12.57;;;8.00;93.00;;;;;;5057607;28;20039;-80
2020/12/12 10:34:50;;;;;;;28.38;14.40;;;8.00;93.00;;;;;;5074056;28;20039;-80
2020/12/12 10:37:15;;;;;;;22.88;12.18;;;8.00;93.00;;;;;;5075252;28;20035;-81
2020/12/12 10:40:32;;;;;;;27.35;13.32;;;8.00;93.00;;;;;;5074058;28;20098;-80
2020/12/12 10:42:27;;;;;;;22.08;12.10;;;8.00;93.00;;;;;;5053067;28;20106;-76
2020/12/12 10:44:53;;;;;;;20.98;12.88;;;8.10;93.00;;;;;;5057152;28;20052;-74
2020/12/12 10:47:19;;;;;;;26.15;12.75;;;8.00;92.90;;;;;;5073602;28;20040;-74
2020/12/12 10:49:45;;;;;;;22.70;12.68;;;8.10;93.00;;;;;;5056987;28;20021;-74
2020/12/12 10:52:10;;;;;;;23.50;12.57;;;8.10;93.00;;;;;;5057058;28;20649;-74
2020/12/12 10:54:37;;;;;;;21.65;11.85;;;8.10;93.00;;;;;;5048571;28;20036;-75
2020/12/12 10:57:03;;;;;;;28.58;12.30;;;8.10;93.00;;;;;;5040219;28;20035;-74
2020/12/12 10:59:29;;;;;;;23.58;11.60;;;8.10;93.00;;;;;;5073567;28;20029;-74
2020/12/12 11:01:55;;;;;;;24.27;12.40;;;8.10;93.00;;;;;;5073354;28;20051;-74
2020/12/12 11:04:22;;;;;;;27.50;13.77;;;8.10;93.00;;;;;;5090219;28;20021;-74
2020/12/12 11:06:49;;;;;;;24.42;11.98;;;8.10;93.00;;;;;;5074296;28;20013;-74
2020/12/12 11:09:15;;;;;;;22.60;12.18;;;8.10;93.00;;;;;;5056715;28;20481;-74
2020/12/12 11:11:40;;;;;;;24.45;12.27;;;8.20;93.30;;;;;;5056337;28;20047;-74
2020/12/12 11:14:08;;;;;;;23.65;12.88;;;8.20;93.00;;;;;;5039625;28;20032;-74
2020/12/12 11:16:33;;;;;;;24.08;12.55;;;8.20;93.00;;;;;;5056784;28;20056;-74
2020/12/12 11:18:59;;;;;;;21.40;11.90;;;8.20;93.00;;;;;;5039768;28;20055;-74
2020/12/12 11:21:25;;;;;;;30.52;13.43;;;8.20;93.00;;;;;;5098960;28;20028;-74
2020/12/12 11:23:51;;;;;;;25.73;12.82;;;8.30;93.00;;;;;;5075826;28;20024;-74
2020/12/12 11:26:17;;;;;;;22.98;13.23;;;8.30;93.00;;;;;;5093917;28;20016;-73
2020/12/12 11:28:45;;;;;;;26.75;13.30;;;8.30;93.00;;;;;;5060004;28;20016;-88
2020/12/12 11:31:19;;;;;;;27.00;13.07;;;8.30;93.00;;;;;;5094868;28;20496;-86
2020/12/12 11:33:48;;;;;;;23.73;12.35;;;8.30;93.00;;;;;;5094477;28;20024;-85
2020/12/12 11:36:42;;;;;;;28.48;12.13;;;8.40;93.00;;;;;;5076052;28;20067;-86
2020/12/12 11:39:19;;;;;;;29.98;12.68;;;8.40;93.00;;;;;;5076828;28;20531;-85
2020/12/12 11:46:50;;;;;;;30.38;13.27;;;8.40;93.00;;;;;;5076512;28;20157;-78
2020/12/12 11:49:17;;;;;;;27.45;13.32;;;8.50;93.00;;;;;;5091865;28;20020;-78
2020/12/12 11:51:43;;;;;;;30.13;14.23;;;8.50;93.00;;;;;;5066118;28;20396;-77
2020/12/12 11:54:09;;;;;;;32.72;15.35;;;8.50;93.00;;;;;;5091216;28;20107;-78
2020/12/12 11:56:34;;;;;;;32.67;13.88;;;8.50;92.90;;;;;;5069434;28;20698;-79
2020/12/12 11:59:00;;;;;;;36.47;14.13;;;8.60;92.90;;;;;;5072824;28;20473;-75
2020/12/12 12:01:27;;;;;;;27.98;13.43;;;8.60;92.90;;;;;;5072931;28;20404;-76
2020/12/12 12:03:53;;;;;;;26.42;13.38;;;8.60;92.90;;;;;;5087848;28;20024;-75
2020/12/12 12:06:20;;;;;;;30.05;13.55;;;8.70;92.90;;;;;;5075241;28;20024;-73
2020/12/12 12:11:32;;;;;;;31.58;13.13;;;8.70;92.90;;;;;;5077375;28;20047;-74
2020/12/12 12:13:59;;;;;;;27.73;12.73;;;8.70;92.90;;;;;;5092546;28;20511;-75
2020/12/12 12:16:25;;;;;;;28.38;13.02;;;8.70;92.90;;;;;;5074233;28;20093;-75
2020/12/12 12:18:50;;;;;;;31.88;13.40;;;8.70;92.90;;;;;;5091583;28;20488;-75
2020/12/12 12:21:17;;;;;;;28.20;13.98;;;8.70;92.90;;;;;;5057313;28;20075;-76
2020/12/12 12:23:43;;;;;;;32.42;13.93;;;8.70;92.90;;;;;;5092986;28;20047;-76
2020/12/12 12:26:09;;;;;;;29.63;13.55;;;8.70;92.90;;;;;;5075156;28;20024;-75
2020/12/12 12:28:35;;;;;;;31.15;13.63;;;8.70;92.90;;;;;;5093173;28;20051;-75
2020/12/12 12:31:01;;;;;;;27.02;12.80;;;8.80;92.90;;;;;;5086663;28;20024;-74
2020/12/12 12:33:26;;;;;;;32.90;13.57;;;8.80;92.90;;;;;;5092754;28;20512;-75
2020/12/12 12:35:52;;;;;;;28.45;12.80;;;8.80;92.90;;;;;;5057487;28;20028;-74
2020/12/12 12:38:18;;;;;;;29.05;13.88;;;8.80;92.90;;;;;;5074968;28;20032;-74
2020/12/12 12:40:44;;;;;;;26.40;12.27;;;8.90;92.90;;;;;;5074827;28;20059;-76
2020/12/12 12:43:09;;;;;;;25.15;12.50;;;8.90;92.90;;;;;;5072222;28;20075;-75
2020/12/12 12:45:35;;;;;;;36.03;13.65;;;8.90;92.80;;;;;;5074189;28;20058;-75
2020/12/12 12:48:01;;;;;;;26.02;13.10;;;9.00;92.80;;;;;;5090570;28;20088;-75
2020/12/12 12:50:36;;;;;;;32.17;14.50;;;9.00;92.70;;;;;;5058262;28;20020;-75
2020/12/12 12:53:07;;;;;;;35.70;14.68;;;9.00;92.70;;;;;;5060810;28;20381;-75
2020/12/12 12:55:34;;;;;;;31.23;15.02;;;9.10;92.70;;;;;;5092697;28;20035;-74